sensor_id;sensor_type;location;lat;lon;timestamp;temperature;humidity
19588;DHT22;9940;47.252;8.696;2023-02-01T00:02:05;6.10;90.20
19588;DHT22;9940;47.252;8.696;2023-02-01T00:04:33;6.10;90.30
19588;DHT22;9940;47.252;8.696;2023-02-01T00:06:59;6.10;90.40
19588;DHT22;9940;47.252;8.696;2023-02-01T00:09:27;6.10;90.40
19588;DHT22;9940;47.252;8.696;2023-02-01T00:11:55;6.10;90.30
19588;DHT22;9940;47.252;8.696;2023-02-01T00:14:20;6.10;90.30
19588;DHT22;9940;47.252;8.696;2023-02-01T00:16:48;6.10;90.20
19588;DHT22;9940;47.252;8.696;2023-02-01T00:19:16;6.10;90.20
19588;DHT22;9940;47.252;8.696;2023-02-01T00:21:44;6.10;90.10
19588;DHT22;9940;47.252;8.696;2023-02-01T00:24:11;6.10;90.00
19588;DHT22;9940;47.252;8.696;2023-02-01T00:26:42;6.10;89.80
19588;DHT22;9940;47.252;8.696;2023-02-01T00:29:16;6.10;89.50
19588;DHT22;9940;47.252;8.696;2023-02-01T00:31:43;6.10;89.40
19588;DHT22;9940;47.252;8.696;2023-02-01T00:34:15;6.10;89.40
19588;DHT22;9940;47.252;8.696;2023-02-01T00:36:42;6.00;89.60
19588;DHT22;9940;47.252;8.696;2023-02-01T00:39:11;6.00;89.80
19588;DHT22;9940;47.252;8.696;2023-02-01T00:41:36;6.00;90.00
19588;DHT22;9940;47.252;8.696;2023-02-01T00:44:02;6.00;90.10
19588;DHT22;9940;47.252;8.696;2023-02-01T00:46:31;5.90;90.10
19588;DHT22;9940;47.252;8.696;2023-02-01T00:48:59;5.90;90.60
19588;DHT22;9940;47.252;8.696;2023-02-01T00:51:27;5.90;90.40
19588;DHT22;9940;47.252;8.696;2023-02-01T00:53:53;5.80;90.50
19588;DHT22;9940;47.252;8.696;2023-02-01T00:56:19;5.80;91.00
19588;DHT22;9940;47.252;8.696;2023-02-01T00:58:45;5.70;90.70
19588;DHT22;9940;47.252;8.696;2023-02-01T01:01:21;5.70;90.80
19588;DHT22;9940;47.252;8.696;2023-02-01T01:03:55;5.60;90.80
19588;DHT22;9940;47.252;8.696;2023-02-01T01:06:23;5.60;90.80
19588;DHT22;9940;47.252;8.696;2023-02-01T01:08:54;5.60;90.80
19588;DHT22;9940;47.252;8.696;2023-02-01T01:11:25;5.50;90.80
19588;DHT22;9940;47.252;8.696;2023-02-01T01:13:52;5.50;90.70
19588;DHT22;9940;47.252;8.696;2023-02-01T01:16:19;5.50;90.70
19588;DHT22;9940;47.252;8.696;2023-02-01T01:18:48;5.40;90.70
19588;DHT22;9940;47.252;8.696;2023-02-01T01:21:17;5.40;90.90
19588;DHT22;9940;47.252;8.696;2023-02-01T01:23:44;5.40;91.10
19588;DHT22;9940;47.252;8.696;2023-02-01T01:26:14;5.30;91.20
19588;DHT22;9940;47.252;8.696;2023-02-01T01:28:41;5.30;91.40
19588;DHT22;9940;47.252;8.696;2023-02-01T01:31:11;5.30;91.40
19588;DHT22;9940;47.252;8.696;2023-02-01T01:33:37;5.30;91.40
19588;DHT22;9940;47.252;8.696;2023-02-01T01:36:07;5.20;91.50
19588;DHT22;9940;47.252;8.696;2023-02-01T01:38:37;5.20;91.80
19588;DHT22;9940;47.252;8.696;2023-02-01T01:41:02;5.10;92.20
19588;DHT22;9940;47.252;8.696;2023-02-01T01:43:53;5.10;92.70
19588;DHT22;9940;47.252;8.696;2023-02-01T01:46:21;5.00;93.30
19588;DHT22;9940;47.252;8.696;2023-02-01T01:48:53;5.00;93.60
19588;DHT22;9940;47.252;8.696;2023-02-01T01:51:25;4.90;93.90
19588;DHT22;9940;47.252;8.696;2023-02-01T01:54:02;4.90;94.30
19588;DHT22;9940;47.252;8.696;2023-02-01T01:56:34;4.90;94.50
19588;DHT22;9940;47.252;8.696;2023-02-01T01:59:02;4.80;94.60
19588;DHT22;9940;47.252;8.696;2023-02-01T02:01:29;4.80;94.70
19588;DHT22;9940;47.252;8.696;2023-02-01T02:03:54;4.80;94.80
19588;DHT22;9940;47.252;8.696;2023-02-01T02:07:02;4.80;95.00
19588;DHT22;9940;47.252;8.696;2023-02-01T02:09:29;4.80;95.50
19588;DHT22;9940;47.252;8.696;2023-02-01T02:11:55;4.80;95.50
19588;DHT22;9940;47.252;8.696;2023-02-01T02:14:23;4.80;95.90
19588;DHT22;9940;47.252;8.696;2023-02-01T02:17:07;4.70;96.20
19588;DHT22;9940;47.252;8.696;2023-02-01T02:22:48;4.70;96.90
19588;DHT22;9940;47.252;8.696;2023-02-01T02:25:49;4.70;97.20
19588;DHT22;9940;47.252;8.696;2023-02-01T02:34:24;4.70;97.80
19588;DHT22;9940;47.252;8.696;2023-02-01T02:37:20;4.70;97.90
19588;DHT22;9940;47.252;8.696;2023-02-01T02:45:23;4.70;98.20
19588;DHT22;9940;47.252;8.696;2023-02-01T02:48:38;4.60;98.20
19588;DHT22;9940;47.252;8.696;2023-02-01T02:51:23;4.60;98.50
19588;DHT22;9940;47.252;8.696;2023-02-01T02:54:24;4.60;98.70
19588;DHT22;9940;47.252;8.696;2023-02-01T02:57:20;4.60;98.90
19588;DHT22;9940;47.252;8.696;2023-02-01T03:00:12;4.60;98.90
19588;DHT22;9940;47.252;8.696;2023-02-01T03:03:00;4.60;99.00
19588;DHT22;9940;47.252;8.696;2023-02-01T03:05:46;4.50;99.00
19588;DHT22;9940;47.252;8.696;2023-02-01T03:08:14;4.50;99.10
19588;DHT22;9940;47.252;8.696;2023-02-01T03:13:21;4.50;99.40
19588;DHT22;9940;47.252;8.696;2023-02-01T03:21:39;4.50;99.70
19588;DHT22;9940;47.252;8.696;2023-02-01T03:24:23;4.40;99.80
19588;DHT22;9940;47.252;8.696;2023-02-01T03:27:06;4.40;99.90
19588;DHT22;9940;47.252;8.696;2023-02-01T03:29:43;4.40;99.90
19588;DHT22;9940;47.252;8.696;2023-02-01T03:32:10;4.40;99.90
19588;DHT22;9940;47.252;8.696;2023-02-01T03:34:38;4.40;99.90
19588;DHT22;9940;47.252;8.696;2023-02-01T03:37:10;4.40;99.90
19588;DHT22;9940;47.252;8.696;2023-02-01T03:40:03;4.30;99.90
19588;DHT22;9940;47.252;8.696;2023-02-01T03:42:44;4.30;99.90
19588;DHT22;9940;47.252;8.696;2023-02-01T03:45:27;4.40;99.90
19588;DHT22;9940;47.252;8.696;2023-02-01T03:47:59;4.30;99.90
19588;DHT22;9940;47.252;8.696;2023-02-01T03:50:26;4.40;99.90
19588;DHT22;9940;47.252;8.696;2023-02-01T03:55:22;4.50;99.90
19588;DHT22;9940;47.252;8.696;2023-02-01T04:00:29;4.60;99.90
19588;DHT22;9940;47.252;8.696;2023-02-01T04:02:58;4.70;99.90
19588;DHT22;9940;47.252;8.696;2023-02-01T04:05:24;4.70;99.90
19588;DHT22;9940;47.252;8.696;2023-02-01T04:07:49;4.70;99.90
19588;DHT22;9940;47.252;8.696;2023-02-01T04:10:15;4.80;99.90
19588;DHT22;9940;47.252;8.696;2023-02-01T04:12:41;4.80;99.90
19588;DHT22;9940;47.252;8.696;2023-02-01T04:15:08;4.70;99.90
19588;DHT22;9940;47.252;8.696;2023-02-01T04:17:33;4.70;99.90
19588;DHT22;9940;47.252;8.696;2023-02-01T04:20:02;4.70;99.80
19588;DHT22;9940;47.252;8.696;2023-02-01T04:22:30;4.80;99.70
19588;DHT22;9940;47.252;8.696;2023-02-01T04:24:58;4.80;99.50
19588;DHT22;9940;47.252;8.696;2023-02-01T04:27:26;4.80;99.30
19588;DHT22;9940;47.252;8.696;2023-02-01T04:29:54;4.80;99.10
19588;DHT22;9940;47.252;8.696;2023-02-01T04:32:19;4.80;98.80
19588;DHT22;9940;47.252;8.696;2023-02-01T04:34:45;4.90;98.70
19588;DHT22;9940;47.252;8.696;2023-02-01T04:37:11;4.90;98.30
19588;DHT22;9940;47.252;8.696;2023-02-01T04:39:37;4.90;98.10
19588;DHT22;9940;47.252;8.696;2023-02-01T04:42:03;4.90;97.90
19588;DHT22;9940;47.252;8.696;2023-02-01T04:44:28;5.00;97.80
19588;DHT22;9940;47.252;8.696;2023-02-01T04:46:59;5.00;97.60
19588;DHT22;9940;47.252;8.696;2023-02-01T04:49:27;5.00;97.20
19588;DHT22;9940;47.252;8.696;2023-02-01T04:51:54;5.00;96.90
19588;DHT22;9940;47.252;8.696;2023-02-01T04:54:20;5.10;96.70
19588;DHT22;9940;47.252;8.696;2023-02-01T04:56:46;5.10;96.50
19588;DHT22;9940;47.252;8.696;2023-02-01T04:59:12;5.10;96.40
19588;DHT22;9940;47.252;8.696;2023-02-01T05:01:39;5.10;96.40
19588;DHT22;9940;47.252;8.696;2023-02-01T05:04:05;5.10;96.30
19588;DHT22;9940;47.252;8.696;2023-02-01T05:06:31;5.10;96.30
19588;DHT22;9940;47.252;8.696;2023-02-01T05:08:59;5.10;96.30
19588;DHT22;9940;47.252;8.696;2023-02-01T05:11:24;5.10;96.30
19588;DHT22;9940;47.252;8.696;2023-02-01T05:14:09;5.10;96.40
19588;DHT22;9940;47.252;8.696;2023-02-01T05:16:37;5.10;96.40
19588;DHT22;9940;47.252;8.696;2023-02-01T05:19:05;5.10;96.40
19588;DHT22;9940;47.252;8.696;2023-02-01T05:21:33;5.20;96.30
19588;DHT22;9940;47.252;8.696;2023-02-01T05:24:01;5.10;96.40
19588;DHT22;9940;47.252;8.696;2023-02-01T05:26:39;5.20;96.30
19588;DHT22;9940;47.252;8.696;2023-02-01T05:29:07;5.20;96.40
19588;DHT22;9940;47.252;8.696;2023-02-01T05:31:35;5.20;96.40
19588;DHT22;9940;47.252;8.696;2023-02-01T05:34:04;5.20;96.50
19588;DHT22;9940;47.252;8.696;2023-02-01T05:36:30;5.20;96.60
19588;DHT22;9940;47.252;8.696;2023-02-01T05:38:56;5.20;96.90
19588;DHT22;9940;47.252;8.696;2023-02-01T05:41:27;5.20;97.10
19588;DHT22;9940;47.252;8.696;2023-02-01T05:43:52;5.30;97.20
19588;DHT22;9940;47.252;8.696;2023-02-01T05:46:18;5.30;97.20
19588;DHT22;9940;47.252;8.696;2023-02-01T05:48:44;5.20;97.10
19588;DHT22;9940;47.252;8.696;2023-02-01T05:51:10;5.30;97.20
19588;DHT22;9940;47.252;8.696;2023-02-01T05:53:41;5.30;97.30
19588;DHT22;9940;47.252;8.696;2023-02-01T05:56:07;5.30;97.40
19588;DHT22;9940;47.252;8.696;2023-02-01T05:58:33;5.30;97.40
19588;DHT22;9940;47.252;8.696;2023-02-01T06:01:03;5.30;97.50
19588;DHT22;9940;47.252;8.696;2023-02-01T06:03:31;5.30;97.70
19588;DHT22;9940;47.252;8.696;2023-02-01T06:05:59;5.30;97.80
19588;DHT22;9940;47.252;8.696;2023-02-01T06:08:26;5.30;97.80
19588;DHT22;9940;47.252;8.696;2023-02-01T06:11:05;5.30;97.80
19588;DHT22;9940;47.252;8.696;2023-02-01T06:13:31;5.20;97.60
19588;DHT22;9940;47.252;8.696;2023-02-01T06:15:59;5.20;97.50
19588;DHT22;9940;47.252;8.696;2023-02-01T06:18:25;5.30;97.20
19588;DHT22;9940;47.252;8.696;2023-02-01T06:20:55;5.30;97.00
19588;DHT22;9940;47.252;8.696;2023-02-01T06:23:22;5.30;96.80
19588;DHT22;9940;47.252;8.696;2023-02-01T06:25:57;5.40;96.60
19588;DHT22;9940;47.252;8.696;2023-02-01T06:28:24;5.40;96.50
19588;DHT22;9940;47.252;8.696;2023-02-01T06:30:50;5.40;96.40
19588;DHT22;9940;47.252;8.696;2023-02-01T06:33:18;5.40;96.30
19588;DHT22;9940;47.252;8.696;2023-02-01T06:35:44;5.50;96.20
19588;DHT22;9940;47.252;8.696;2023-02-01T06:38:11;5.50;96.10
19588;DHT22;9940;47.252;8.696;2023-02-01T06:40:39;5.50;96.00
19588;DHT22;9940;47.252;8.696;2023-02-01T06:43:07;5.40;95.90
19588;DHT22;9940;47.252;8.696;2023-02-01T06:45:33;5.40;95.80
19588;DHT22;9940;47.252;8.696;2023-02-01T06:47:59;5.40;95.70
19588;DHT22;9940;47.252;8.696;2023-02-01T06:50:26;5.50;95.60
19588;DHT22;9940;47.252;8.696;2023-02-01T06:52:52;5.50;95.50
19588;DHT22;9940;47.252;8.696;2023-02-01T06:55:17;5.50;95.50
19588;DHT22;9940;47.252;8.696;2023-02-01T06:57:45;5.40;95.50
19588;DHT22;9940;47.252;8.696;2023-02-01T07:00:11;5.50;95.60
19588;DHT22;9940;47.252;8.696;2023-02-01T07:02:37;5.50;95.70
19588;DHT22;9940;47.252;8.696;2023-02-01T07:05:04;5.40;96.00
19588;DHT22;9940;47.252;8.696;2023-02-01T07:07:30;5.40;96.30
19588;DHT22;9940;47.252;8.696;2023-02-01T07:09:55;5.40;96.50
19588;DHT22;9940;47.252;8.696;2023-02-01T07:12:21;5.40;96.40
19588;DHT22;9940;47.252;8.696;2023-02-01T07:14:47;5.40;96.30
19588;DHT22;9940;47.252;8.696;2023-02-01T07:17:15;5.40;96.00
19588;DHT22;9940;47.252;8.696;2023-02-01T07:19:40;5.40;95.80
19588;DHT22;9940;47.252;8.696;2023-02-01T07:22:06;5.40;95.50
19588;DHT22;9940;47.252;8.696;2023-02-01T07:24:33;5.40;95.40
19588;DHT22;9940;47.252;8.696;2023-02-01T07:26:59;5.40;95.30
19588;DHT22;9940;47.252;8.696;2023-02-01T07:29:25;5.40;95.20
19588;DHT22;9940;47.252;8.696;2023-02-01T07:31:50;5.40;95.30
19588;DHT22;9940;47.252;8.696;2023-02-01T07:34:18;5.30;95.50
19588;DHT22;9940;47.252;8.696;2023-02-01T07:36:44;5.30;95.70
19588;DHT22;9940;47.252;8.696;2023-02-01T07:39:14;5.30;95.80
19588;DHT22;9940;47.252;8.696;2023-02-01T07:41:40;5.20;95.90
19588;DHT22;9940;47.252;8.696;2023-02-01T07:44:06;5.30;96.00
19588;DHT22;9940;47.252;8.696;2023-02-01T07:46:31;5.20;96.10
19588;DHT22;9940;47.252;8.696;2023-02-01T07:49:01;5.30;96.30
19588;DHT22;9940;47.252;8.696;2023-02-01T07:51:30;5.30;96.40
19588;DHT22;9940;47.252;8.696;2023-02-01T07:53:55;5.30;96.40
19588;DHT22;9940;47.252;8.696;2023-02-01T07:56:21;5.30;96.40
19588;DHT22;9940;47.252;8.696;2023-02-01T07:58:51;5.40;96.20
19588;DHT22;9940;47.252;8.696;2023-02-01T08:01:20;5.40;96.00
19588;DHT22;9940;47.252;8.696;2023-02-01T08:03:50;5.40;95.70
19588;DHT22;9940;47.252;8.696;2023-02-01T08:06:16;5.40;95.40
19588;DHT22;9940;47.252;8.696;2023-02-01T08:08:45;5.50;95.10
19588;DHT22;9940;47.252;8.696;2023-02-01T08:11:14;5.40;94.80
19588;DHT22;9940;47.252;8.696;2023-02-01T08:13:43;5.50;94.70
19588;DHT22;9940;47.252;8.696;2023-02-01T08:16:10;5.50;94.60
19588;DHT22;9940;47.252;8.696;2023-02-01T08:18:37;5.50;94.40
19588;DHT22;9940;47.252;8.696;2023-02-01T08:21:05;5.50;94.20
19588;DHT22;9940;47.252;8.696;2023-02-01T08:23:31;5.50;94.20
19588;DHT22;9940;47.252;8.696;2023-02-01T08:26:19;5.50;94.20
19588;DHT22;9940;47.252;8.696;2023-02-01T08:28:51;5.50;94.30
19588;DHT22;9940;47.252;8.696;2023-02-01T08:31:19;5.60;94.40
19588;DHT22;9940;47.252;8.696;2023-02-01T08:33:54;5.60;94.50
19588;DHT22;9940;47.252;8.696;2023-02-01T08:36:22;5.70;94.40
19588;DHT22;9940;47.252;8.696;2023-02-01T08:38:48;5.70;94.30
19588;DHT22;9940;47.252;8.696;2023-02-01T08:41:20;5.80;94.30
19588;DHT22;9940;47.252;8.696;2023-02-01T08:43:46;5.80;94.30
19588;DHT22;9940;47.252;8.696;2023-02-01T08:46:13;5.90;94.20
19588;DHT22;9940;47.252;8.696;2023-02-01T08:48:39;6.00;94.20
19588;DHT22;9940;47.252;8.696;2023-02-01T08:51:10;6.00;94.10
19588;DHT22;9940;47.252;8.696;2023-02-01T08:53:37;6.10;94.00
19588;DHT22;9940;47.252;8.696;2023-02-01T08:56:04;6.10;93.90
19588;DHT22;9940;47.252;8.696;2023-02-01T08:58:32;6.00;93.90
19588;DHT22;9940;47.252;8.696;2023-02-01T09:01:05;6.10;93.90
19588;DHT22;9940;47.252;8.696;2023-02-01T09:03:31;6.10;93.90
19588;DHT22;9940;47.252;8.696;2023-02-01T09:06:01;6.10;93.80
19588;DHT22;9940;47.252;8.696;2023-02-01T09:08:27;6.00;93.80
19588;DHT22;9940;47.252;8.696;2023-02-01T09:10:53;6.00;93.90
19588;DHT22;9940;47.252;8.696;2023-02-01T09:13:18;6.00;93.90
19588;DHT22;9940;47.252;8.696;2023-02-01T09:15:45;6.10;93.90
19588;DHT22;9940;47.252;8.696;2023-02-01T09:18:10;6.10;93.80
19588;DHT22;9940;47.252;8.696;2023-02-01T09:20:37;6.10;94.00
19588;DHT22;9940;47.252;8.696;2023-02-01T09:23:02;6.10;94.10
19588;DHT22;9940;47.252;8.696;2023-02-01T09:25:32;6.10;94.20
19588;DHT22;9940;47.252;8.696;2023-02-01T09:27:58;6.10;94.30
19588;DHT22;9940;47.252;8.696;2023-02-01T09:30:26;6.20;94.40
19588;DHT22;9940;47.252;8.696;2023-02-01T09:32:52;6.20;94.50
19588;DHT22;9940;47.252;8.696;2023-02-01T09:35:20;6.20;94.40
19588;DHT22;9940;47.252;8.696;2023-02-01T09:37:45;6.20;94.40
19588;DHT22;9940;47.252;8.696;2023-02-01T09:40:15;6.20;94.50
19588;DHT22;9940;47.252;8.696;2023-02-01T09:46:08;6.20;94.50
19588;DHT22;9940;47.252;8.696;2023-02-01T09:48:43;6.20;94.30
19588;DHT22;9940;47.252;8.696;2023-02-01T09:51:16;6.20;94.10
19588;DHT22;9940;47.252;8.696;2023-02-01T09:53:51;6.30;94.10
19588;DHT22;9940;47.252;8.696;2023-02-01T09:56:29;6.30;94.00
19588;DHT22;9940;47.252;8.696;2023-02-01T10:01:50;6.40;93.60
19588;DHT22;9940;47.252;8.696;2023-02-01T10:04:20;6.50;93.30
19588;DHT22;9940;47.252;8.696;2023-02-01T10:23:02;6.60;92.00
19588;DHT22;9940;47.252;8.696;2023-02-01T10:25:34;6.70;92.20
19588;DHT22;9940;47.252;8.696;2023-02-01T10:28:02;6.70;91.80
19588;DHT22;9940;47.252;8.696;2023-02-01T10:30:44;6.80;91.80
19588;DHT22;9940;47.252;8.696;2023-02-01T10:35:46;6.80;91.90
19588;DHT22;9940;47.252;8.696;2023-02-01T10:38:20;6.90;92.00
19588;DHT22;9940;47.252;8.696;2023-02-01T10:40:51;6.90;92.00
19588;DHT22;9940;47.252;8.696;2023-02-01T10:43:17;6.90;92.10
19588;DHT22;9940;47.252;8.696;2023-02-01T10:45:45;6.80;92.30
19588;DHT22;9940;47.252;8.696;2023-02-01T10:48:13;6.80;92.50
19588;DHT22;9940;47.252;8.696;2023-02-01T10:50:44;6.80;92.60
19588;DHT22;9940;47.252;8.696;2023-02-01T10:55:48;7.00;92.50
19588;DHT22;9940;47.252;8.696;2023-02-01T10:58:18;7.10;92.30
19588;DHT22;9940;47.252;8.696;2023-02-01T11:00:53;7.20;92.10
19588;DHT22;9940;47.252;8.696;2023-02-01T11:08:52;8.10;90.40
19588;DHT22;9940;47.252;8.696;2023-02-01T11:11:18;8.20;90.00
19588;DHT22;9940;47.252;8.696;2023-02-01T11:13:44;8.20;89.80
19588;DHT22;9940;47.252;8.696;2023-02-01T11:16:18;8.30;89.60
19588;DHT22;9940;47.252;8.696;2023-02-01T11:18:46;8.40;89.00
19588;DHT22;9940;47.252;8.696;2023-02-01T11:21:17;8.60;88.50
19588;DHT22;9940;47.252;8.696;2023-02-01T11:23:45;8.80;87.80
19588;DHT22;9940;47.252;8.696;2023-02-01T11:26:24;8.90;87.10
19588;DHT22;9940;47.252;8.696;2023-02-01T11:29:11;9.10;86.40
19588;DHT22;9940;47.252;8.696;2023-02-01T11:31:38;9.40;85.80
19588;DHT22;9940;47.252;8.696;2023-02-01T11:34:12;10.00;84.30
19588;DHT22;9940;47.252;8.696;2023-02-01T14:54:27;8.70;71.50
19588;DHT22;9940;47.252;8.696;2023-02-01T14:56:57;8.70;72.20
19588;DHT22;9940;47.252;8.696;2023-02-01T14:59:24;8.50;72.50
19588;DHT22;9940;47.252;8.696;2023-02-01T15:01:57;8.40;72.80
19588;DHT22;9940;47.252;8.696;2023-02-01T15:04:27;8.30;73.10
19588;DHT22;9940;47.252;8.696;2023-02-01T15:07:03;8.20;73.50
19588;DHT22;9940;47.252;8.696;2023-02-01T15:09:33;8.10;73.90
19588;DHT22;9940;47.252;8.696;2023-02-01T15:12:14;8.00;74.10
19588;DHT22;9940;47.252;8.696;2023-02-01T15:15:01;7.90;74.20
19588;DHT22;9940;47.252;8.696;2023-02-01T15:17:30;7.90;74.70
19588;DHT22;9940;47.252;8.696;2023-02-01T15:20:18;7.80;74.70
19588;DHT22;9940;47.252;8.696;2023-02-01T15:25:29;7.80;74.90
19588;DHT22;9940;47.252;8.696;2023-02-01T15:27:56;7.80;74.80
19588;DHT22;9940;47.252;8.696;2023-02-01T15:30:25;7.70;74.70
19588;DHT22;9940;47.252;8.696;2023-02-01T15:32:58;7.70;74.90
19588;DHT22;9940;47.252;8.696;2023-02-01T15:36:20;7.70;75.10
19588;DHT22;9940;47.252;8.696;2023-02-01T15:38:41;7.60;75.80
19588;DHT22;9940;47.252;8.696;2023-02-01T15:41:28;7.60;75.00
19588;DHT22;9940;47.252;8.696;2023-02-01T15:46:31;7.60;74.90
19588;DHT22;9940;47.252;8.696;2023-02-01T15:48:57;7.60;75.20
19588;DHT22;9940;47.252;8.696;2023-02-01T15:51:29;7.50;75.00
19588;DHT22;9940;47.252;8.696;2023-02-01T15:54:06;7.50;75.10
19588;DHT22;9940;47.252;8.696;2023-02-01T15:56:35;7.50;75.20
19588;DHT22;9940;47.252;8.696;2023-02-01T15:59:03;7.50;75.10
19588;DHT22;9940;47.252;8.696;2023-02-01T16:01:30;7.50;74.80
19588;DHT22;9940;47.252;8.696;2023-02-01T16:06:57;7.40;74.20
19588;DHT22;9940;47.252;8.696;2023-02-01T16:09:34;7.40;74.00
19588;DHT22;9940;47.252;8.696;2023-02-01T16:12:02;7.40;74.00
19588;DHT22;9940;47.252;8.696;2023-02-01T16:14:29;7.40;73.90
19588;DHT22;9940;47.252;8.696;2023-02-01T16:16:57;7.40;73.60
19588;DHT22;9940;47.252;8.696;2023-02-01T16:19:23;7.40;73.20
19588;DHT22;9940;47.252;8.696;2023-02-01T16:21:54;7.30;72.90
19588;DHT22;9940;47.252;8.696;2023-02-01T16:24:26;7.30;72.80
19588;DHT22;9940;47.252;8.696;2023-02-01T16:26:54;7.30;73.00
19588;DHT22;9940;47.252;8.696;2023-02-01T16:29:20;7.30;73.10
19588;DHT22;9940;47.252;8.696;2023-02-01T16:31:48;7.30;73.30
19588;DHT22;9940;47.252;8.696;2023-02-01T16:34:15;7.30;73.40
19588;DHT22;9940;47.252;8.696;2023-02-01T16:36:49;7.30;73.50
19588;DHT22;9940;47.252;8.696;2023-02-01T16:39:22;7.20;73.60
19588;DHT22;9940;47.252;8.696;2023-02-01T16:41:49;7.20;73.80
19588;DHT22;9940;47.252;8.696;2023-02-01T16:44:15;7.20;73.90
19588;DHT22;9940;47.252;8.696;2023-02-01T16:46:44;7.20;74.00
19588;DHT22;9940;47.252;8.696;2023-02-01T16:49:22;7.20;73.90
19588;DHT22;9940;47.252;8.696;2023-02-01T16:51:49;7.20;73.80
19588;DHT22;9940;47.252;8.696;2023-02-01T16:54:19;7.20;73.80
19588;DHT22;9940;47.252;8.696;2023-02-01T16:56:45;7.20;73.90
19588;DHT22;9940;47.252;8.696;2023-02-01T16:59:13;7.20;74.00
19588;DHT22;9940;47.252;8.696;2023-02-01T17:01:40;7.10;74.10
19588;DHT22;9940;47.252;8.696;2023-02-01T17:04:11;7.20;74.40
19588;DHT22;9940;47.252;8.696;2023-02-01T17:06:37;7.20;74.50
19588;DHT22;9940;47.252;8.696;2023-02-01T17:09:04;7.10;74.40
19588;DHT22;9940;47.252;8.696;2023-02-01T17:11:30;7.10;74.50
19588;DHT22;9940;47.252;8.696;2023-02-01T17:14:17;7.10;74.60
19588;DHT22;9940;47.252;8.696;2023-02-01T17:16:44;7.10;74.60
19588;DHT22;9940;47.252;8.696;2023-02-01T17:19:17;7.10;74.80
19588;DHT22;9940;47.252;8.696;2023-02-01T17:21:47;7.10;75.10
19588;DHT22;9940;47.252;8.696;2023-02-01T17:24:18;7.10;75.30
19588;DHT22;9940;47.252;8.696;2023-02-01T17:26:49;7.10;75.40
19588;DHT22;9940;47.252;8.696;2023-02-01T17:29:16;7.10;75.60
19588;DHT22;9940;47.252;8.696;2023-02-01T17:31:44;7.10;75.90
19588;DHT22;9940;47.252;8.696;2023-02-01T17:34:11;7.10;76.10
19588;DHT22;9940;47.252;8.696;2023-02-01T17:36:42;7.10;76.10
19588;DHT22;9940;47.252;8.696;2023-02-01T17:39:10;7.10;75.90
19588;DHT22;9940;47.252;8.696;2023-02-01T17:41:56;7.10;75.90
19588;DHT22;9940;47.252;8.696;2023-02-01T17:44:22;7.10;75.80
19588;DHT22;9940;47.252;8.696;2023-02-01T17:46:48;7.10;75.70
19588;DHT22;9940;47.252;8.696;2023-02-01T17:49:13;7.10;75.90
19588;DHT22;9940;47.252;8.696;2023-02-01T17:51:39;7.00;76.00
19588;DHT22;9940;47.252;8.696;2023-02-01T17:54:12;7.00;75.90
19588;DHT22;9940;47.252;8.696;2023-02-01T17:56:38;7.00;75.80
19588;DHT22;9940;47.252;8.696;2023-02-01T17:59:04;7.10;75.90
19588;DHT22;9940;47.252;8.696;2023-02-01T18:01:30;7.10;75.70
19588;DHT22;9940;47.252;8.696;2023-02-01T18:03:59;7.10;75.60
19588;DHT22;9940;47.252;8.696;2023-02-01T18:06:26;7.10;75.70
19588;DHT22;9940;47.252;8.696;2023-02-01T18:08:52;7.10;75.80
19588;DHT22;9940;47.252;8.696;2023-02-01T18:11:20;7.10;75.80
19588;DHT22;9940;47.252;8.696;2023-02-01T18:13:50;7.10;76.10
19588;DHT22;9940;47.252;8.696;2023-02-01T18:18:47;7.10;76.30
19588;DHT22;9940;47.252;8.696;2023-02-01T18:21:17;7.10;77.10
19588;DHT22;9940;47.252;8.696;2023-02-01T18:23:45;7.10;76.50
19588;DHT22;9940;47.252;8.696;2023-02-01T18:26:15;7.10;76.50
19588;DHT22;9940;47.252;8.696;2023-02-01T18:28:42;7.10;76.70
19588;DHT22;9940;47.252;8.696;2023-02-01T18:33:47;7.00;76.90
19588;DHT22;9940;47.252;8.696;2023-02-01T18:36:13;7.10;77.00
19588;DHT22;9940;47.252;8.696;2023-02-01T18:38:40;7.10;77.10
19588;DHT22;9940;47.252;8.696;2023-02-01T18:41:13;7.10;77.00
19588;DHT22;9940;47.252;8.696;2023-02-01T18:43:40;7.00;77.20
19588;DHT22;9940;47.252;8.696;2023-02-01T18:46:08;7.00;77.20
19588;DHT22;9940;47.252;8.696;2023-02-01T18:48:33;7.00;77.30
19588;DHT22;9940;47.252;8.696;2023-02-01T18:50:59;7.00;77.40
19588;DHT22;9940;47.252;8.696;2023-02-01T18:53:25;7.00;77.50
19588;DHT22;9940;47.252;8.696;2023-02-01T18:55:57;7.00;77.60
19588;DHT22;9940;47.252;8.696;2023-02-01T18:58:24;7.00;78.00
19588;DHT22;9940;47.252;8.696;2023-02-01T19:00:52;6.90;78.20
19588;DHT22;9940;47.252;8.696;2023-02-01T19:03:21;6.90;78.40
19588;DHT22;9940;47.252;8.696;2023-02-01T19:05:53;6.90;78.60
19588;DHT22;9940;47.252;8.696;2023-02-01T19:08:19;6.90;78.90
19588;DHT22;9940;47.252;8.696;2023-02-01T19:10:45;6.90;79.30
19588;DHT22;9940;47.252;8.696;2023-02-01T19:13:12;6.80;79.50
19588;DHT22;9940;47.252;8.696;2023-02-01T19:15:40;6.80;80.00
19588;DHT22;9940;47.252;8.696;2023-02-01T19:18:07;6.80;80.30
19588;DHT22;9940;47.252;8.696;2023-02-01T19:20:36;6.80;80.30
19588;DHT22;9940;47.252;8.696;2023-02-01T19:23:02;6.80;80.10
19588;DHT22;9940;47.252;8.696;2023-02-01T19:25:30;6.80;80.00
19588;DHT22;9940;47.252;8.696;2023-02-01T19:27:59;6.80;80.00
19588;DHT22;9940;47.252;8.696;2023-02-01T19:30:27;6.80;79.90
19588;DHT22;9940;47.252;8.696;2023-02-01T19:32:55;6.80;80.60
19588;DHT22;9940;47.252;8.696;2023-02-01T19:35:21;6.80;80.00
19588;DHT22;9940;47.252;8.696;2023-02-01T19:37:47;6.80;79.90
19588;DHT22;9940;47.252;8.696;2023-02-01T19:40:16;6.80;79.90
19588;DHT22;9940;47.252;8.696;2023-02-01T19:42:42;6.70;80.00
19588;DHT22;9940;47.252;8.696;2023-02-01T19:45:08;6.80;80.20
19588;DHT22;9940;47.252;8.696;2023-02-01T19:47:34;6.80;80.30
19588;DHT22;9940;47.252;8.696;2023-02-01T19:50:00;6.80;80.40
19588;DHT22;9940;47.252;8.696;2023-02-01T19:52:26;6.70;80.40
19588;DHT22;9940;47.252;8.696;2023-02-01T19:54:54;6.80;80.60
19588;DHT22;9940;47.252;8.696;2023-02-01T19:57:22;6.70;80.70
19588;DHT22;9940;47.252;8.696;2023-02-01T19:59:48;6.70;80.70
19588;DHT22;9940;47.252;8.696;2023-02-01T20:02:15;6.70;80.50
19588;DHT22;9940;47.252;8.696;2023-02-01T20:04:40;6.70;80.40
19588;DHT22;9940;47.252;8.696;2023-02-01T20:07:09;6.70;80.50
19588;DHT22;9940;47.252;8.696;2023-02-01T20:09:38;6.70;80.70
19588;DHT22;9940;47.252;8.696;2023-02-01T20:12:08;6.70;80.60
19588;DHT22;9940;47.252;8.696;2023-02-01T20:14:40;6.70;80.60
19588;DHT22;9940;47.252;8.696;2023-02-01T20:17:15;6.70;80.70
19588;DHT22;9940;47.252;8.696;2023-02-01T20:19:42;6.70;81.00
19588;DHT22;9940;47.252;8.696;2023-02-01T20:22:08;6.70;81.30
19588;DHT22;9940;47.252;8.696;2023-02-01T20:24:34;6.70;81.60
19588;DHT22;9940;47.252;8.696;2023-02-01T20:27:00;6.70;81.70
19588;DHT22;9940;47.252;8.696;2023-02-01T20:29:25;6.70;81.80
19588;DHT22;9940;47.252;8.696;2023-02-01T20:31:52;6.80;81.80
19588;DHT22;9940;47.252;8.696;2023-02-01T20:34:17;7.00;81.80
19588;DHT22;9940;47.252;8.696;2023-02-01T20:36:44;7.10;81.80
19588;DHT22;9940;47.252;8.696;2023-02-01T20:39:10;7.10;81.70
19588;DHT22;9940;47.252;8.696;2023-02-01T20:41:36;7.20;81.40
19588;DHT22;9940;47.252;8.696;2023-02-01T20:44:02;7.30;81.20
19588;DHT22;9940;47.252;8.696;2023-02-01T20:46:28;7.20;81.20
19588;DHT22;9940;47.252;8.696;2023-02-01T20:48:56;7.10;81.50
19588;DHT22;9940;47.252;8.696;2023-02-01T20:51:21;7.00;81.60